createdAt,value
2023-04-26T05:02:10.019Z,8.57
2023-04-26T05:04:38.475Z,8.43
2023-04-26T05:07:06.821Z,8.37
2023-04-26T05:09:34.942Z,8.57
2023-04-26T05:12:03.230Z,9.10
2023-04-26T05:14:31.648Z,9.20
2023-04-26T05:16:59.695Z,8.57
2023-04-26T05:19:29.209Z,8.63
2023-04-26T05:21:58.278Z,10.50
2023-04-26T05:24:26.487Z,8.63
2023-04-26T05:26:54.541Z,9.30
2023-04-26T05:29:22.629Z,9.27
2023-04-26T05:31:50.728Z,8.43
2023-04-26T05:34:19.077Z,9.63
2023-04-26T05:36:48.515Z,9.60
2023-04-26T05:39:16.588Z,9.60
2023-04-26T05:41:44.781Z,10.13
2023-04-26T05:44:13.058Z,10.10
2023-04-26T05:46:41.182Z,10.47
2023-04-26T05:49:09.275Z,10.57
2023-04-26T05:51:37.396Z,9.93
2023-04-26T05:54:07.006Z,11.40
2023-04-26T05:56:35.103Z,13.57
2023-04-26T05:59:03.125Z,17.80
2023-04-26T06:01:31.206Z,14.70
2023-04-26T06:04:00.832Z,13.73
2023-04-26T06:06:29.329Z,11.50
2023-04-26T06:08:57.425Z,11.27
2023-04-26T06:11:26.827Z,11.40
2023-04-26T06:13:55.567Z,10.93
2023-04-26T06:16:24.026Z,9.70
2023-04-26T06:18:52.083Z,10.57
2023-04-26T06:21:20.153Z,10.00
2023-04-26T06:23:48.199Z,9.47
2023-04-26T06:26:16.308Z,10.17
2023-04-26T06:28:45.756Z,10.30
2023-04-26T06:31:13.906Z,10.70
2023-04-26T06:33:43.426Z,10.30
2023-04-26T06:36:13.821Z,10.50
2023-04-26T06:38:41.927Z,9.93
2023-04-26T06:41:09.957Z,10.10
2023-04-26T06:43:38.089Z,9.97
2023-04-26T06:46:07.652Z,9.63
2023-04-26T06:48:35.687Z,9.57
2023-04-26T06:51:07.113Z,10.80
2023-04-26T06:53:35.216Z,12.23
2023-04-26T06:56:03.421Z,10.13
2023-04-26T06:58:31.527Z,12.40
2023-04-26T07:00:59.699Z,11.77
2023-04-26T07:03:29.398Z,13.03
2023-04-26T07:05:57.944Z,12.23
2023-04-26T07:08:26.026Z,13.60
2023-04-26T07:10:55.412Z,11.53
2023-04-26T07:13:23.568Z,12.03
2023-04-26T07:15:52.310Z,10.17
2023-04-26T07:18:20.495Z,10.40
2023-04-26T07:20:50.001Z,10.17
2023-04-26T07:23:18.021Z,10.30
2023-04-26T07:25:46.054Z,9.23
2023-04-26T07:28:14.542Z,9.90
2023-04-26T07:30:43.359Z,9.57
2023-04-26T07:33:11.524Z,7.97
2023-04-26T07:35:39.628Z,7.90
2023-04-26T07:38:09.130Z,6.80
2023-04-26T07:40:37.530Z,7.77
2023-04-26T07:43:05.831Z,7.80
2023-04-26T07:45:34.244Z,7.30
2023-04-26T07:48:02.470Z,8.30
2023-04-26T07:50:30.637Z,7.50
2023-04-26T07:52:58.727Z,6.60
2023-04-26T07:55:28.485Z,8.50
2023-04-26T07:57:56.657Z,7.43
2023-04-26T08:00:25.475Z,7.20
2023-04-26T08:02:53.676Z,6.07
2023-04-26T08:05:22.230Z,5.77
2023-04-26T08:07:50.334Z,6.30
2023-04-26T08:10:18.566Z,6.43
2023-04-26T08:12:47.980Z,5.90
2023-04-26T08:15:16.204Z,6.27
2023-04-26T08:17:44.362Z,5.93
2023-04-26T08:20:13.036Z,5.03
2023-04-26T08:22:41.071Z,4.87
2023-04-26T08:25:09.744Z,5.97
2023-04-26T08:27:37.955Z,6.00
2023-04-26T08:30:08.888Z,5.87
2023-04-26T08:32:36.948Z,3.67
2023-04-26T08:35:05.814Z,4.10
2023-04-26T08:37:34.039Z,4.30
2023-04-26T08:40:02.103Z,4.97
2023-04-26T08:42:30.259Z,4.40
2023-04-26T08:45:01.878Z,5.03
2023-04-26T08:47:37.181Z,4.60
2023-04-26T08:50:06.750Z,5.10
2023-04-26T08:52:36.363Z,4.13
2023-04-26T08:55:06.362Z,3.80
2023-04-26T08:57:34.882Z,4.13
2023-04-26T09:00:05.632Z,4.30
2023-04-26T09:02:36.601Z,4.50
2023-04-26T09:05:07.006Z,4.53
2023-04-26T09:07:44.460Z,4.50
2023-04-26T09:10:13.676Z,5.57
2023-04-26T09:12:42.082Z,5.03
2023-04-26T09:15:11.532Z,5.37
2023-04-26T09:17:42.182Z,5.80
2023-04-26T09:20:22.141Z,4.70
2023-04-26T09:22:50.887Z,5.47
2023-04-26T09:25:19.957Z,4.87
2023-04-26T09:27:48.104Z,4.90
2023-04-26T09:30:18.542Z,4.70
2023-04-26T09:32:53.914Z,5.30
2023-04-26T09:35:28.690Z,5.20
2023-04-26T09:38:05.624Z,5.27
2023-04-26T09:40:38.461Z,7.70
2023-04-26T09:43:08.869Z,5.27
2023-04-26T09:45:46.470Z,4.97
2023-04-26T09:48:22.336Z,4.60
2023-04-26T09:50:53.331Z,5.70
2023-04-26T09:53:34.355Z,5.47
2023-04-26T09:56:10.138Z,5.83
2023-04-26T09:58:39.786Z,5.63
2023-04-26T10:01:10.027Z,5.40
2023-04-26T10:03:39.933Z,5.13
2023-04-26T10:06:08.826Z,5.20
2023-04-26T10:08:37.423Z,4.23
2023-04-26T10:11:07.572Z,4.63
2023-04-26T10:13:36.164Z,4.40
2023-04-26T10:16:04.913Z,4.70
2023-04-26T10:18:33.661Z,5.00
2023-04-26T10:21:07.477Z,5.43
2023-04-26T10:23:36.710Z,5.63
2023-04-26T10:26:05.235Z,5.33
2023-04-26T10:29:02.517Z,5.57
2023-04-26T10:32:03.968Z,5.33
2023-04-26T10:34:33.649Z,4.90
2023-04-26T10:37:13.572Z,4.53
2023-04-26T10:39:42.875Z,4.73
2023-04-26T10:42:26.537Z,4.77
2023-04-26T10:44:56.105Z,4.50
2023-04-26T10:47:26.941Z,4.80
2023-04-26T10:50:05.644Z,5.00
2023-04-26T10:52:36.070Z,4.93
2023-04-26T10:55:06.184Z,4.27
2023-04-26T10:57:54.272Z,3.93
2023-04-26T11:00:31.649Z,4.70
2023-04-26T11:03:04.281Z,4.67
2023-04-26T11:05:55.592Z,5.17
2023-04-26T11:08:30.279Z,4.83
2023-04-26T11:11:11.921Z,4.40
2023-04-26T11:13:41.652Z,4.60
2023-04-26T11:16:11.051Z,5.13
2023-04-26T11:18:42.032Z,5.23
2023-04-26T11:21:11.197Z,5.43
2023-04-26T11:23:40.747Z,5.20
2023-04-26T11:26:09.869Z,5.00
2023-04-26T11:28:39.873Z,4.83
2023-04-26T11:31:08.731Z,5.50
2023-04-26T11:33:36.978Z,4.77
2023-04-26T11:36:05.512Z,5.60
2023-04-26T11:38:33.571Z,5.60
2023-04-26T11:41:04.467Z,4.93
2023-04-26T11:43:36.762Z,5.10
2023-04-26T11:46:06.711Z,6.03
2023-04-26T11:48:36.702Z,5.53
2023-04-26T11:51:06.189Z,5.70
2023-04-26T11:53:38.727Z,5.83
2023-04-26T11:56:16.671Z,5.63
2023-04-26T11:58:48.812Z,5.60
2023-04-26T12:01:24.321Z,6.17
2023-04-26T12:03:54.258Z,6.70
2023-04-26T12:06:30.235Z,6.40
2023-04-26T12:08:58.786Z,6.00
2023-04-26T12:11:28.240Z,5.80
2023-04-26T12:13:59.495Z,5.87
2023-04-26T12:16:27.649Z,6.60
2023-04-26T12:18:57.071Z,6.97
2023-04-26T12:21:28.132Z,6.73
2023-04-26T12:23:57.868Z,6.47
2023-04-26T12:26:43.622Z,6.17
2023-04-26T12:29:11.710Z,6.03
2023-04-26T12:31:39.986Z,6.20
2023-04-26T12:34:08.847Z,6.27
2023-04-26T12:36:36.898Z,6.10
2023-04-26T12:39:05.474Z,5.80
2023-04-26T12:41:33.673Z,5.87
2023-04-26T12:44:03.085Z,5.87
2023-04-26T12:46:31.538Z,6.60
2023-04-26T12:48:59.589Z,5.63
2023-04-26T12:51:27.612Z,5.90
2023-04-26T12:53:55.721Z,5.80
2023-04-26T12:56:23.964Z,6.20
2023-04-26T12:58:52.086Z,5.80
2023-04-26T13:01:21.590Z,5.73
2023-04-26T13:03:49.932Z,5.83
2023-04-26T13:06:18.325Z,6.57
2023-04-26T13:08:46.381Z,6.57
2023-04-26T13:11:14.795Z,6.67
2023-04-26T13:13:44.559Z,6.50
2023-04-26T13:16:13.539Z,6.53
2023-04-26T13:18:43.052Z,5.73
2023-04-26T13:21:11.159Z,6.40
2023-04-26T13:23:39.171Z,6.63
2023-04-26T13:26:07.310Z,6.90
2023-04-26T13:28:37.136Z,6.40
2023-04-26T13:31:05.390Z,7.43
2023-04-26T13:33:33.829Z,6.73
2023-04-26T13:36:03.261Z,6.90
2023-04-26T13:38:32.940Z,6.87
2023-04-26T13:41:01.360Z,6.53
2023-04-26T13:43:29.393Z,6.30
2023-04-26T13:45:57.554Z,5.97
2023-04-26T13:48:25.744Z,6.10
2023-04-26T13:50:53.897Z,5.97
2023-04-26T13:53:23.550Z,5.93
2023-04-26T13:55:51.651Z,6.37
2023-04-26T13:58:19.729Z,5.67
2023-04-26T14:00:47.880Z,5.70
2023-04-26T14:03:16.347Z,4.70
2023-04-26T14:05:44.580Z,4.90
2023-04-26T14:08:12.864Z,5.00
2023-04-26T14:10:42.398Z,5.40
2023-04-26T14:13:10.517Z,5.43
2023-04-26T14:15:38.597Z,5.40
2023-04-26T14:18:06.845Z,6.20
2023-04-26T14:20:34.905Z,7.03
2023-04-26T14:23:03.023Z,5.83
2023-04-26T14:25:31.160Z,6.50
2023-04-26T14:28:00.748Z,6.50
2023-04-26T14:30:29.830Z,6.20
2023-04-26T14:32:57.915Z,8.03
2023-04-26T14:35:26.301Z,11.97
2023-04-26T14:37:54.357Z,12.57
2023-04-26T14:40:22.615Z,10.70
2023-04-26T14:42:50.656Z,9.90
2023-04-26T14:45:22.262Z,11.67
2023-04-26T14:47:53.620Z,11.33
2023-04-26T14:50:21.758Z,10.50
2023-04-26T14:52:49.775Z,11.53
2023-04-26T14:55:22.459Z,11.40
2023-04-26T14:57:50.622Z,10.40
2023-04-26T15:00:20.848Z,12.03
2023-04-26T15:02:49.147Z,9.60
2023-04-26T15:05:17.845Z,10.27
2023-04-26T15:07:45.914Z,10.60
2023-04-26T15:10:13.932Z,10.97
2023-04-26T15:12:42.005Z,12.17
2023-04-26T15:15:10.490Z,13.00
2023-04-26T15:17:40.001Z,12.77
2023-04-26T15:20:09.412Z,13.67
2023-04-26T15:22:39.071Z,13.40
2023-04-26T15:25:09.058Z,13.13
2023-04-26T15:27:37.257Z,14.00
2023-04-26T15:30:06.042Z,13.40
2023-04-26T15:32:34.114Z,13.67
2023-04-26T15:35:04.180Z,13.07
2023-04-26T15:37:32.258Z,12.90
2023-04-26T15:40:00.367Z,13.43
2023-04-26T15:42:28.498Z,13.67
2023-04-26T15:44:56.772Z,13.77
2023-04-26T15:47:24.840Z,13.10
2023-04-26T15:49:54.753Z,13.10
2023-04-26T15:52:24.129Z,12.30
2023-04-26T15:54:52.174Z,13.03
2023-04-26T15:57:20.192Z,13.33
2023-04-26T15:59:48.255Z,12.73
2023-04-26T16:02:16.390Z,12.50
2023-04-26T16:04:44.676Z,11.63
2023-04-26T16:07:12.840Z,11.83
2023-04-26T16:09:42.519Z,11.73
2023-04-26T16:12:10.589Z,12.80
2023-04-26T16:14:38.784Z,12.13
2023-04-26T16:17:06.840Z,13.20
2023-04-26T16:19:34.851Z,13.00
2023-04-26T16:22:02.935Z,12.93
2023-04-26T16:24:30.969Z,13.00
2023-04-26T16:27:00.408Z,12.97
2023-04-26T16:29:28.475Z,12.40
2023-04-26T16:31:56.834Z,13.13
2023-04-26T16:34:26.803Z,13.10
2023-04-26T16:36:54.874Z,12.90
2023-04-26T16:39:23.568Z,11.67
2023-04-26T16:41:54.133Z,11.80
2023-04-26T16:44:24.610Z,12.13
2023-04-26T16:46:52.684Z,11.33
2023-04-26T16:49:21.089Z,11.83
2023-04-26T16:51:53.685Z,11.40
2023-04-26T16:54:21.918Z,12.20
2023-04-26T16:56:50.166Z,11.60
2023-04-26T16:59:18.337Z,11.03
2023-04-26T17:01:50.769Z,11.20
2023-04-26T17:04:19.202Z,10.77
2023-04-26T17:06:47.418Z,10.80
2023-04-26T17:09:15.714Z,10.00
2023-04-26T17:11:44.824Z,9.23
2023-04-26T17:14:12.882Z,8.87
2023-04-26T17:16:41.240Z,8.47
2023-04-26T17:19:10.848Z,8.27
2023-04-26T17:21:38.882Z,8.27
2023-04-26T17:24:07.791Z,7.97
2023-04-26T17:26:35.847Z,7.40
2023-04-26T17:29:03.857Z,7.87
2023-04-26T17:31:31.990Z,8.13
2023-04-26T17:34:00.566Z,8.53
2023-04-26T17:36:31.899Z,9.70
2023-04-26T17:38:59.939Z,8.93
2023-04-26T17:41:27.997Z,8.80
2023-04-26T17:43:56.035Z,8.80
2023-04-26T17:46:24.125Z,7.83
2023-04-26T17:48:52.192Z,8.33
2023-04-26T17:51:20.243Z,7.60
2023-04-26T17:53:49.696Z,8.40
2023-04-26T17:56:17.759Z,8.20
2023-04-26T17:58:45.870Z,8.60
2023-04-26T18:01:13.924Z,8.13
2023-04-26T18:03:42.114Z,8.33
2023-04-26T18:06:10.292Z,8.77
2023-04-26T18:08:38.567Z,8.30
2023-04-26T18:11:07.977Z,7.73
2023-04-26T18:13:36.133Z,8.77
2023-04-26T18:16:04.206Z,8.13
2023-04-26T18:18:32.239Z,7.83
2023-04-26T18:21:00.469Z,8.13
2023-04-26T18:23:28.590Z,8.07
2023-04-26T18:25:56.686Z,8.23
2023-04-26T18:28:26.758Z,7.67
